Time;durP1;ratioP1;P1;durP2;ratioP2;P2;SDS_P1;SDS_P2;PMS_P1;PMS_P2;Temp;Humidity;BMP_temperature;BMP_pressure;BME280_temperature;BME280_humidity;BME280_pressure;Samples;Min_cycle;Max_cycle;Signal;HPM_P1;HPM_P2
2023/11/25 00:01:40;;;;;;;14.13;2.47;;;;;;;9.81;57.48;101409.97;5032151;28;20049;-69
2023/11/25 00:04:08;;;;;;;12.13;2.53;;;;;;;8.80;56.01;101416.31;5054282;28;20044;-67
2023/11/25 00:06:35;;;;;;;16.27;3.10;;;;;;;8.45;56.39;101405.56;5017285;28;20065;-66
2023/11/25 00:09:03;;;;;;;13.95;2.60;;;;;;;7.95;59.85;101402.97;5053586;28;20048;-67
2023/11/25 00:11:30;;;;;;;11.35;2.22;;;;;;;7.33;62.32;101410.78;5034055;28;20057;-68
2023/11/25 00:13:58;;;;;;;15.05;2.78;;;;;;;8.09;58.96;101405.97;5053456;28;20700;-64
2023/11/25 00:16:26;;;;;;;11.73;2.47;;;;;;;6.41;63.04;101417.25;5051972;28;20048;-63
2023/11/25 00:18:53;;;;;;;12.60;2.53;;;;;;;6.75;66.07;101401.16;5049527;28;20049;-67
2023/11/25 00:21:20;;;;;;;11.55;2.72;;;;;;;7.01;63.89;101404.78;5035459;28;20045;-64
2023/11/25 00:23:48;;;;;;;12.07;2.75;;;;;;;6.55;64.56;101409.34;5035627;28;20061;-63
2023/11/25 00:26:19;;;;;;;;;;;;;;;6.99;66.64;101405.03;5049731;28;20400;-64
2023/11/25 00:28:56;;;;;;;9.55;2.20;;;;;;;6.75;65.35;101396.53;5053309;28;19924;-64
2023/11/25 00:31:24;;;;;;;8.45;2.30;;;;;;;6.88;64.25;101402.56;5049882;28;20076;-65
2023/11/25 00:33:52;;;;;;;9.40;2.00;;;;;;;6.26;64.76;101413.66;5060252;28;20053;-64
2023/11/25 00:36:20;;;;;;;9.70;2.10;;;;;;;6.56;69.03;101411.81;5036323;28;20065;-64
2023/11/25 00:38:48;;;;;;;9.70;2.20;;;;;;;6.99;65.41;101393.25;5051106;28;20059;-64
2023/11/25 00:41:22;;;;;;;10.48;2.65;;;;;;;6.34;65.15;101405.75;5049653;28;20409;-70
2023/11/25 00:43:51;;;;;;;11.75;2.70;;;;;;;7.32;67.72;101392.72;5049120;28;20056;-67
2023/11/25 00:46:19;;;;;;;13.63;2.22;;;;;;;6.93;63.44;101400.66;5019257;28;20060;-67
2023/11/25 00:48:46;;;;;;;11.90;2.67;;;;;;;6.79;66.85;101405.84;5053450;28;20056;-64
2023/11/25 00:51:14;;;;;;;11.70;2.38;;;;;;;7.00;65.03;101401.19;5034018;28;20051;-68
2023/11/25 00:53:41;;;;;;;13.43;2.50;;;;;;;7.52;64.43;101396.25;5049504;28;20493;-65
2023/11/25 00:56:09;;;;;;;8.52;2.25;;;;;;;6.51;64.09;101402.75;5034674;28;20062;-64
2023/11/25 00:58:36;;;;;;;13.50;2.53;;;;;;;7.09;67.96;101404.22;5040473;28;20037;-65
2023/11/25 01:01:04;;;;;;;8.30;1.90;;;;;;;6.39;65.23;101405.75;5051744;28;20049;-65
2023/11/25 01:03:32;;;;;;;11.30;1.98;;;;;;;6.73;64.86;101401.44;5038876;28;20076;-67
2023/11/25 01:06:06;;;;;;;11.75;2.10;;;;;;;6.76;64.50;101403.63;5053135;28;20049;-67
2023/11/25 01:08:34;;;;;;;13.13;2.72;;;;;;;6.62;70.06;101408.00;5046230;28;20056;-67
2023/11/25 01:11:01;;;;;;;9.02;1.90;;;;;;;6.71;66.81;101405.56;5053356;28;20056;-63
2023/11/25 01:13:28;;;;;;;12.73;2.85;;;;;;;7.13;67.08;101397.09;5052735;28;20056;-65
2023/11/25 01:15:56;;;;;;;13.90;2.42;;;;;;;6.23;65.59;101412.25;5054512;28;20049;-64
2023/11/25 01:18:23;;;;;;;11.73;2.10;;;;;;;5.91;68.06;101413.47;5052900;28;20049;-64
2023/11/25 01:20:54;;;;;;;8.98;2.10;;;;;;;6.98;70.68;101402.56;5069634;28;20055;-63
2023/11/25 01:23:25;;;;;;;10.35;2.75;;;;;;;6.49;66.50;101415.88;5052499;28;20064;-64
2023/11/25 01:25:52;;;;;;;11.20;2.10;;;;;;;6.14;68.35;101422.06;5051544;28;20067;-69
2023/11/25 01:28:21;;;;;;;13.35;2.65;;;;;;;6.19;68.24;101418.53;5051982;28;20049;-67
2023/11/25 01:30:51;;;;;;;11.30;2.65;;;;;;;5.98;68.20;101417.59;5052709;28;20507;-67
2023/11/25 01:33:18;;;;;;;11.68;2.50;;;;;;;6.88;67.57;101421.72;5052441;28;20048;-64
2023/11/25 01:35:46;;;;;;;13.45;2.40;;;;;;;6.47;68.33;101421.63;5053050;28;20059;-64
2023/11/25 01:38:14;;;;;;;13.90;1.73;;;;;;;7.24;70.04;101418.72;5052786;28;20048;-64
2023/11/25 01:40:42;;;;;;;15.27;2.35;;;;;;;7.42;65.85;101420.94;5051879;28;20049;-64
2023/11/25 01:43:10;;;;;;;12.45;2.15;;;;;;;7.18;69.48;101419.00;5053469;28;20052;-64
2023/11/25 01:45:38;;;;;;;8.43;1.98;;;;;;;6.97;68.70;101423.66;5052462;28;20060;-63
2023/11/25 01:48:05;;;;;;;9.98;2.75;;;;;;;7.44;68.92;101424.22;5052402;28;20052;-64
2023/11/25 01:50:36;;;;;;;12.68;2.50;;;;;;;7.19;63.78;101426.13;5052583;28;20376;-64
2023/11/25 01:53:04;;;;;;;12.75;2.45;;;;;;;6.60;66.93;101431.25;5051769;28;20041;-67
2023/11/25 01:55:32;;;;;;;14.35;2.38;;;;;;;6.16;69.18;101430.00;5052935;28;20040;-68
2023/11/25 01:57:59;;;;;;;14.90;2.03;;;;;;;6.59;67.73;101424.94;5050201;28;20519;-68
2023/11/25 02:00:28;;;;;;;12.35;2.40;;;;;;;7.06;67.30;101424.75;5035061;28;20049;-66
2023/11/25 02:02:57;;;;;;;12.02;2.53;;;;;;;6.57;70.54;101420.84;5053294;28;20049;-66
2023/11/25 02:05:24;;;;;;;13.82;2.35;;;;;;;6.58;67.15;101431.53;5050352;28;20056;-64
2023/11/25 02:07:52;;;;;;;13.25;2.50;;;;;;;6.87;68.54;101426.38;5068804;28;20075;-67
2023/11/25 02:10:19;;;;;;;11.18;2.75;;;;;;;6.48;67.64;101428.78;5071306;28;20438;-69
2023/11/25 02:12:47;;;;;;;7.82;2.55;;;;;;;7.01;70.53;101422.00;5071484;28;20048;-63
2023/11/25 02:15:14;;;;;;;13.43;2.90;;;;;;;6.43;67.63;101425.19;5046572;28;20049;-63
2023/11/25 02:17:42;;;;;;;10.90;2.45;;;;;;;6.95;68.01;101428.59;5051465;28;20103;-68
2023/11/25 02:20:13;;;;;;;13.80;2.65;;;;;;;6.72;68.83;101434.56;5047186;28;20037;-67
2023/11/25 02:22:57;;;;;;;10.48;2.50;;;;;;;5.79;69.30;101421.84;5051280;28;20052;-64
2023/11/25 02:25:24;;;;;;;14.77;2.80;;;;;;;5.54;71.62;101429.91;5064258;28;20053;-67
2023/11/25 02:27:51;;;;;;;14.00;3.47;;;;;;;5.72;71.48;101426.72;5030156;28;20056;-67
2023/11/25 02:30:19;;;;;;;15.30;2.80;;;;;;;5.63;72.00;101417.41;5040504;28;20116;-67
2023/11/25 02:32:47;;;;;;;14.25;2.63;;;;;;;5.32;72.73;101416.34;5052019;28;20045;-68
2023/11/25 02:35:14;;;;;;;12.10;2.40;;;;;;;6.60;74.08;101415.66;5039897;28;20073;-64
2023/11/25 02:37:45;;;;;;;10.80;2.80;;;;;;;7.24;66.25;101406.94;5031973;28;20085;-64
2023/11/25 02:40:16;;;;;;;12.45;2.85;;;;;;;6.78;71.87;101420.59;5032100;28;20045;-67
2023/11/25 02:42:47;;;;;;;11.05;2.40;;;;;;;7.38;68.12;101408.03;5047104;28;20057;-67
2023/11/25 02:45:18;;;;;;;12.02;2.70;;;;;;;6.27;68.90;101416.09;5032868;28;20053;-68
2023/11/25 02:47:47;;;;;;;11.32;2.72;;;;;;;6.39;71.02;101408.50;5031104;28;20053;-67
2023/11/25 02:50:15;;;;;;;10.88;2.70;;;;;;;5.89;71.32;101421.94;5030858;28;20052;-67
2023/11/25 02:52:43;;;;;;;15.15;2.90;;;;;;;5.51;71.99;101411.28;5032456;28;20431;-67
2023/11/25 02:55:11;;;;;;;13.38;3.35;;;;;;;6.21;76.88;101424.53;5036783;28;20056;-67
2023/11/25 02:57:46;;;;;;;16.48;3.17;;;;;;;5.40;72.65;101420.50;5050909;28;20067;-69
2023/11/25 03:00:33;;;;;;;14.85;3.00;;;;;;;5.17;74.46;101413.50;5051524;28;20512;-67
2023/11/25 03:03:07;;;;;;;15.07;2.60;;;;;;;5.50;76.75;101423.31;5052101;28;20052;-67
2023/11/25 03:05:37;;;;;;;9.50;2.45;;;;;;;5.98;74.29;101417.59;5050712;28;20045;-67
2023/11/25 03:08:06;;;;;;;11.13;3.05;;;;;;;7.10;75.85;101412.16;5054010;28;20044;-66
2023/11/25 03:10:33;;;;;;;13.20;2.70;;;;;;;6.85;71.35;101418.44;5036542;28;20049;-68
2023/11/25 03:13:02;;;;;;;14.18;2.92;;;;;;;6.11;72.33;101421.75;5032311;28;20049;-67
2023/11/25 03:15:31;;;;;;;10.02;2.65;;;;;;;6.60;75.72;101412.94;5043941;28;20072;-67
2023/11/25 03:17:58;;;;;;;14.95;2.95;;;;;;;7.94;70.84;101404.09;5057979;28;20150;-67
2023/11/25 03:20:26;;;;;;;13.93;2.90;;;;;;;6.97;66.63;101403.66;5045411;28;20045;-67
2023/11/25 03:22:53;;;;;;;14.82;2.92;;;;;;;6.07;71.54;101409.69;5053927;28;20057;-68
2023/11/25 03:25:22;;;;;;;14.25;3.08;;;;;;;6.51;71.04;101410.97;5063559;28;20638;-67
2023/11/25 03:27:51;;;;;;;20.98;3.75;;;;;;;6.74;73.05;101419.53;5057010;28;20049;-66
2023/11/25 03:30:19;;;;;;;9.55;2.55;;;;;;;6.84;73.80;101419.53;5058541;28;20692;-68
2023/11/25 03:32:47;;;;;;;12.10;2.55;;;;;;;6.31;71.37;101413.66;5056600;28;20045;-67
2023/11/25 03:35:15;;;;;;;14.43;2.85;;;;;;;6.88;70.74;101419.81;5074188;28;20057;-67
2023/11/25 03:37:42;;;;;;;15.00;2.85;;;;;;;6.47;73.84;101420.81;5057271;28;20413;-66
2023/11/25 03:40:13;;;;;;;12.75;3.33;;;;;;;6.39;73.93;101419.44;5056962;28;20052;-67
2023/11/25 03:42:44;;;;;;;16.27;2.97;;;;;;;6.34;70.93;101411.22;5058610;28;20519;-68
2023/11/25 03:45:12;;;;;;;9.95;2.40;;;;;;;7.12;75.12;101409.13;5058218;28;20052;-69
2023/11/25 03:47:44;;;;;;;10.20;2.60;;;;;;;7.75;70.42;101403.88;5058304;28;20520;-67
2023/11/25 03:50:12;;;;;;;14.50;2.80;;;;;;;7.56;68.08;101405.56;5058485;28;20052;-67
2023/11/25 03:52:43;;;;;;;12.50;2.90;;;;;;;6.95;69.15;101416.81;5056687;28;20048;-68
2023/11/25 03:55:10;;;;;;;14.23;2.70;;;;;;;7.27;70.43;101412.69;5035946;28;20053;-66
2023/11/25 03:57:39;;;;;;;13.10;3.25;;;;;;;7.80;71.70;101411.25;5036140;28;20057;-66
2023/11/25 04:00:14;;;;;;;10.77;2.88;;;;;;;8.06;67.73;101414.75;5038039;28;20056;-67
2023/11/25 04:02:43;;;;;;;14.43;3.30;;;;;;;7.60;69.80;101414.84;5042102;28;20408;-67
2023/11/25 04:05:11;;;;;;;10.43;2.47;;;;;;;6.43;68.74;101422.44;5057920;28;20161;-63
2023/11/25 04:07:38;;;;;;;12.65;2.83;;;;;;;6.27;72.46;101424.31;5040611;28;20508;-63
2023/11/25 04:10:15;;;;;;;13.50;2.70;;;;;;;7.05;75.64;101416.81;5057568;28;20160;-64
2023/11/25 04:12:44;;;;;;;12.93;3.05;;;;;;;6.18;70.83;101430.56;5051502;28;20048;-63
2023/11/25 04:15:12;;;;;;;16.17;3.20;;;;;;;5.98;72.69;101425.00;5058471;28;20104;-67
2023/11/25 04:17:40;;;;;;;20.17;3.47;;;;;;;5.68;74.11;101420.94;5057009;28;20439;-63
2023/11/25 04:20:14;;;;;;;14.13;2.22;;;;;;;6.20;75.52;101418.28;5056762;28;20500;-63
2023/11/25 04:22:42;;;;;;;12.50;3.00;;;;;;;5.98;74.83;101422.25;5056399;28;20412;-63
2023/11/25 04:25:11;;;;;;;14.88;3.00;;;;;;;6.13;74.42;101417.69;5057604;28;20146;-63
2023/11/25 04:27:40;;;;;;;11.38;2.42;;;;;;;5.54;75.48;101413.50;5025879;28;20069;-63
2023/11/25 04:30:10;;;;;;;14.90;3.58;;;;;;;5.71;77.63;101411.41;5052764;28;20135;-68
2023/11/25 04:32:40;;;;;;;14.02;2.90;;;;;;;5.18;77.87;101423.31;5053115;28;20161;-67
2023/11/25 04:35:08;;;;;;;12.70;3.28;;;;;;;5.50;81.42;101426.03;5054750;28;20057;-67
2023/11/25 04:37:39;;;;;;;12.88;3.20;;;;;;;5.08;78.76;101419.69;5052801;28;20602;-66
2023/11/25 04:40:07;;;;;;;15.57;2.80;;;;;;;6.42;82.79;101423.53;5053244;28;20060;-68
2023/11/25 04:42:35;;;;;;;17.58;3.13;;;;;;;6.58;77.42;101417.00;5053293;28;20052;-68
2023/11/25 04:45:03;;;;;;;15.70;2.75;;;;;;;6.41;75.05;101416.41;5036874;28;20053;-68
2023/11/25 04:47:30;;;;;;;9.68;2.22;;;;;;;5.87;75.52;101421.38;5054199;28;20044;-67
2023/11/25 04:49:57;;;;;;;16.38;2.75;;;;;;;6.27;75.57;101420.75;5053388;28;20041;-68
2023/11/25 04:52:25;;;;;;;18.70;3.30;;;;;;;5.53;76.20;101433.69;5036757;28;20045;-67
2023/11/25 04:54:52;;;;;;;13.20;2.60;;;;;;;5.81;79.38;101429.78;5054216;28;20052;-67
2023/11/25 04:57:19;;;;;;;9.10;2.25;;;;;;;5.35;77.66;101431.41;5053927;28;20060;-67
2023/11/25 04:59:47;;;;;;;17.98;3.47;;;;;;;5.32;78.97;101431.91;5054333;28;20056;-68
2023/11/25 05:02:14;;;;;;;15.95;2.92;;;;;;;5.42;81.03;101423.81;5053044;28;20048;-67
2023/11/25 05:04:41;;;;;;;20.55;3.60;;;;;;;5.53;80.27;101431.78;5054208;28;20057;-67
2023/11/25 05:07:09;;;;;;;12.43;2.50;;;;;;;6.09;79.79;101432.16;5066342;28;20071;-68
2023/11/25 05:09:41;;;;;;;11.50;2.83;;;;;;;5.96;77.80;101436.22;5074124;28;20634;-67
2023/11/25 05:12:08;;;;;;;14.38;3.38;;;;;;;5.68;76.98;101431.09;5074007;28;20060;-68
2023/11/25 05:14:36;;;;;;;13.88;2.75;;;;;;;5.83;79.29;101433.94;5073748;28;20059;-67
2023/11/25 05:17:04;;;;;;;13.75;2.47;;;;;;;5.30;79.68;101434.91;5074327;28;20044;-68
2023/11/25 05:19:32;;;;;;;19.33;3.67;;;;;;;4.99;81.55;101434.88;5073967;28;20052;-64
2023/11/25 05:21:59;;;;;;;11.90;2.85;;;;;;;4.84;82.19;101434.75;5072932;28;20158;-63
2023/11/25 05:24:26;;;;;;;11.23;2.70;;;;;;;6.04;84.70;101435.69;5053185;28;20063;-63
2023/11/25 05:26:53;;;;;;;17.58;2.78;;;;;;;5.40;80.85;101434.16;5053762;28;20377;-64
2023/11/25 05:29:21;;;;;;;21.45;3.10;;;;;;;4.95;82.38;101431.06;5053901;28;20048;-65
2023/11/25 05:31:48;;;;;;;18.92;3.40;;;;;;;4.72;84.23;101440.38;5051841;28;20049;-64
2023/11/25 05:34:15;;;;;;;14.25;3.00;;;;;;;4.71;84.72;101440.63;5054004;28;20060;-63
2023/11/25 05:36:43;;;;;;;15.65;3.20;;;;;;;5.18;85.76;101433.41;5052595;28;20049;-63
2023/11/25 05:39:12;;;;;;;18.17;3.03;;;;;;;4.94;84.18;101432.94;5053204;28;20053;-63
2023/11/25 05:41:40;;;;;;;18.65;2.92;;;;;;;5.43;85.81;101422.69;5052124;28;20057;-64
2023/11/25 05:44:09;;;;;;;14.23;2.85;;;;;;;5.47;81.65;101440.22;5053213;28;20064;-64
2023/11/25 05:46:36;;;;;;;16.92;2.95;;;;;;;6.06;85.25;101435.41;5053776;28;20055;-64
2023/11/25 05:49:04;;;;;;;12.20;2.90;;;;;;;6.54;82.82;101437.78;5053355;28;20052;-64
2023/11/25 05:51:38;;;;;;;15.10;3.05;;;;;;;6.27;81.45;101438.00;5051667;28;20132;-64
2023/11/25 05:54:06;;;;;;;14.10;2.95;;;;;;;7.17;79.75;101431.06;5053904;28;20071;-64
2023/11/25 05:56:33;;;;;;;18.20;3.50;;;;;;;6.01;76.63;101444.44;5052417;28;20053;-65
2023/11/25 05:59:02;;;;;;;18.55;3.30;;;;;;;6.80;82.17;101436.75;5053298;28;20053;-63
2023/11/25 06:01:29;;;;;;;13.30;2.60;;;;;;;5.82;77.16;101445.09;5053029;28;20051;-63
2023/11/25 06:03:58;;;;;;;15.60;3.22;;;;;;;4.84;83.68;101449.22;5053470;28;20052;-65
2023/11/25 06:06:26;;;;;;;20.13;4.20;;;;;;;5.35;85.99;101456.78;5053312;28;20052;-63
2023/11/25 06:08:53;;;;;;;14.38;2.80;;;;;;;5.21;84.26;101454.75;5051461;28;20400;-63
2023/11/25 06:11:21;;;;;;;12.82;2.85;;;;;;;5.42;83.51;101454.66;5017606;28;20057;-67
2023/11/25 06:13:49;;;;;;;15.23;2.75;;;;;;;4.97;83.34;101467.09;5031731;28;20448;-67
2023/11/25 06:16:16;;;;;;;14.55;2.78;;;;;;;4.94;85.60;101462.13;5032485;28;20056;-68
2023/11/25 06:18:44;;;;;;;20.10;3.22;;;;;;;5.29;86.06;101451.53;5048278;28;20053;-68
2023/11/25 06:21:11;;;;;;;12.68;3.00;;;;;;;5.65;86.81;101448.00;5032132;28;20045;-68
2023/11/25 06:23:38;;;;;;;21.45;3.50;;;;;;;5.14;84.16;101445.97;5033016;28;20060;-69
2023/11/25 06:26:10;;;;;;;15.32;2.92;;;;;;;6.85;86.09;101454.03;5052779;28;20044;-68
2023/11/25 06:28:44;;;;;;;16.50;4.00;;;;;;;6.05;78.75;101447.47;5051131;28;20061;-68
2023/11/25 06:31:11;;;;;;;13.32;2.88;;;;;;;5.88;80.01;101455.81;5050871;28;20078;-67
2023/11/25 06:33:39;;;;;;;25.52;3.80;;;;;;;6.98;84.22;101452.69;5051366;28;20068;-69
2023/11/25 06:36:10;;;;;;;14.48;2.72;;;;;;;7.86;79.66;101448.56;5050386;28;20059;-68
2023/11/25 06:38:38;;;;;;;17.98;3.70;;;;;;;6.51;76.76;101461.06;5052648;28;20049;-67
2023/11/25 06:41:07;;;;;;;12.00;3.13;;;;;;;5.89;79.80;101459.41;5051517;28;20045;-68
2023/11/25 06:43:34;;;;;;;19.63;3.40;;;;;;;7.10;82.07;101453.25;5050789;28;20591;-67
2023/11/25 06:46:02;;;;;;;20.27;3.28;;;;;;;6.89;79.53;101459.78;5049145;28;20040;-67
2023/11/25 06:48:29;;;;;;;16.25;3.58;;;;;;;8.09;78.72;101458.09;5050941;28;20056;-68
2023/11/25 06:50:59;;;;;;;13.07;2.78;;;;;;;8.97;74.24;101463.47;5048656;28;20057;-68
2023/11/25 06:53:28;;;;;;;16.92;3.75;;;;;;;9.36;70.98;101452.47;5050869;28;20045;-67
2023/11/25 06:55:59;;;;;;;14.15;3.20;;;;;;;9.65;70.33;101456.06;5030486;28;20057;-69
2023/11/25 06:58:26;;;;;;;12.35;2.92;;;;;;;9.62;68.88;101444.81;5032163;28;20057;-66
2023/11/25 07:00:57;;;;;;;12.25;3.33;;;;;;;9.75;69.79;101453.22;5031418;28;20564;-68
2023/11/25 07:03:24;;;;;;;16.05;3.53;;;;;;;8.62;66.89;101457.34;5032327;28;20448;-67
2023/11/25 07:05:52;;;;;;;15.48;3.38;;;;;;;7.26;70.74;101462.28;5035002;28;20049;-69
2023/11/25 07:08:19;;;;;;;22.52;3.70;;;;;;;6.49;75.94;101476.91;5065031;28;20048;-67
2023/11/25 07:10:53;;;;;;;22.20;3.83;;;;;;;6.59;77.66;101468.75;5039324;28;20054;-67
2023/11/25 07:13:22;;;;;;;16.48;3.35;;;;;;;6.43;83.59;101458.81;5045151;28;20041;-67
2023/11/25 07:15:53;;;;;;;17.63;3.92;;;;;;;7.39;79.47;101459.03;5055436;28;20049;-68
2023/11/25 07:18:22;;;;;;;19.58;3.78;;;;;;;6.59;77.70;101457.00;5032453;28;20072;-68
2023/11/25 07:20:50;;;;;;;21.95;3.60;;;;;;;7.78;75.64;101451.84;5032099;28;20053;-68
2023/11/25 07:23:20;;;;;;;24.88;4.43;;;;;;;6.88;75.54;101462.81;5031728;28;20462;-68
2023/11/25 07:25:48;;;;;;;25.25;4.20;;;;;;;6.66;80.71;101461.09;5040950;28;20511;-68
2023/11/25 07:28:15;;;;;;;15.95;3.70;;;;;;;6.80;79.70;101464.97;5049905;28;20045;-68
2023/11/25 07:30:44;;;;;;;19.98;4.47;;;;;;;7.28;81.16;101462.84;5043025;28;20061;-68
2023/11/25 07:33:11;;;;;;;16.50;3.20;;;;;;;7.18;78.92;101471.06;5042224;28;20040;-68
2023/11/25 07:35:39;;;;;;;15.05;3.50;;;;;;;7.42;80.73;101467.53;5045354;28;20046;-67
2023/11/25 07:38:07;;;;;;;17.02;3.63;;;;;;;8.35;76.61;101459.69;5014406;28;20061;-67
2023/11/25 07:40:34;;;;;;;19.13;3.97;;;;;;;7.37;77.11;101462.03;5047245;28;20044;-68
2023/11/25 07:43:03;;;;;;;19.35;3.38;;;;;;;8.57;76.66;101454.63;5066792;28;20467;-68
2023/11/25 07:45:30;;;;;;;14.70;3.88;;;;;;;7.52;76.22;101455.72;5051330;28;20057;-67
2023/11/25 07:47:58;;;;;;;13.40;3.63;;;;;;;8.65;75.76;101457.59;5038311;28;20496;-67
2023/11/25 07:50:25;;;;;;;13.02;3.67;;;;;;;7.88;74.13;101462.78;5046464;28;20060;-67
2023/11/25 07:52:53;;;;;;;19.17;3.88;;;;;;;8.02;77.22;101468.53;5033809;28;20053;-66
2023/11/25 07:55:20;;;;;;;14.50;4.03;;;;;;;8.50;76.22;101473.34;5050276;28;20407;-67
2023/11/25 07:57:47;;;;;;;17.92;3.95;;;;;;;7.83;72.59;101471.88;5050466;28;20056;-68
2023/11/25 08:00:17;;;;;;;20.85;4.30;;;;;;;8.60;75.68;101467.78;5051701;28;20447;-68
2023/11/25 08:02:49;;;;;;;22.92;3.70;;;;;;;8.50;75.23;101465.09;5051688;28;20058;-67
2023/11/25 08:05:21;;;;;;;17.25;3.78;;;;;;;8.89;73.59;101464.06;5055288;28;20060;-67
2023/11/25 08:07:50;;;;;;;14.43;3.55;;;;;;;9.74;71.54;101472.75;5053981;28;20057;-67
2023/11/25 08:10:19;;;;;;;17.00;4.30;;;;;;;8.61;70.32;101478.50;5053143;28;20091;-68
2023/11/25 08:12:47;;;;;;;18.23;4.05;;;;;;;8.80;72.77;101474.00;5054910;28;20056;-68
2023/11/25 08:15:14;;;;;;;17.27;3.78;;;;;;;8.76;72.99;101472.13;5054335;28;20053;-69
2023/11/25 08:17:42;;;;;;;15.95;3.63;;;;;;;9.05;73.62;101473.84;5050180;28;20053;-68
2023/11/25 08:20:10;;;;;;;15.25;3.83;;;;;;;9.63;70.50;101469.28;5037694;28;20068;-68
2023/11/25 08:22:38;;;;;;;13.95;3.83;;;;;;;8.51;70.20;101472.22;5048132;28;20471;-66
2023/11/25 08:25:10;;;;;;;15.55;3.45;;;;;;;8.80;73.42;101476.75;5046850;28;20504;-69
2023/11/25 08:27:38;;;;;;;14.85;3.97;;;;;;;8.58;74.26;101468.09;5054303;28;20067;-67
2023/11/25 08:30:08;;;;;;;13.30;3.65;;;;;;;8.88;73.30;101467.94;5039561;28;20064;-69
2023/11/25 08:32:39;;;;;;;;;;;;;;;9.56;71.73;101457.78;5039046;28;20048;-67
2023/11/25 08:35:09;;;;;;;16.17;4.20;;;;;;;9.58;71.50;101457.50;5045080;28;19924;-67
2023/11/25 08:37:38;;;;;;;19.35;3.80;;;;;;;9.86;69.44;101468.53;5055367;28;20044;-66
2023/11/25 08:40:10;;;;;;;16.33;3.90;;;;;;;9.88;69.48;101458.03;5049294;28;20075;-67
2023/11/25 08:42:38;;;;;;;15.75;3.72;;;;;;;9.52;67.80;101464.16;5052592;28;20072;-67
2023/11/25 08:45:06;;;;;;;19.98;4.53;;;;;;;9.32;68.92;101456.06;5053864;28;20067;-67
2023/11/25 08:47:35;;;;;;;14.45;3.83;;;;;;;8.61;71.89;101453.78;5054300;28;20071;-67
2023/11/25 08:50:07;;;;;;;20.77;4.50;;;;;;;7.59;71.77;101467.22;5053109;28;20064;-69
2023/11/25 08:52:38;;;;;;;18.55;5.38;;;;;;;6.73;75.08;101458.94;5051885;28;20048;-67
2023/11/25 08:55:08;;;;;;;17.63;4.82;;;;;;;7.24;81.96;101457.09;5052775;28;20055;-68
2023/11/25 08:57:36;;;;;;;21.55;5.00;;;;;;;6.50;79.23;101475.03;5025463;28;20041;-68
2023/11/25 09:00:14;;;;;;;24.35;4.47;;;;;;;5.63;84.73;101472.03;5054250;28;20484;-70
2023/11/25 09:02:42;;;;;;;18.25;4.10;;;;;;;6.46;87.86;101480.19;5052759;28;20045;-68
2023/11/25 09:05:10;;;;;;;18.83;4.97;;;;;;;5.70;87.46;101476.19;5053909;28;20068;-68
2023/11/25 09:07:38;;;;;;;18.52;4.50;;;;;;;5.54;88.85;101481.81;5053602;28;20124;-68
2023/11/25 09:10:07;;;;;;;15.55;4.32;;;;;;;5.83;90.57;101480.41;5053603;28;20053;-69
2023/11/25 09:12:34;;;;;;;16.85;3.88;;;;;;;6.03;90.97;101480.53;5053103;28;20045;-68
2023/11/25 09:15:07;;;;;;;23.33;4.35;;;;;;;5.92;88.94;101476.09;5053362;28;20060;-67
2023/11/25 09:17:38;;;;;;;17.20;4.07;;;;;;;6.06;89.86;101471.81;5053195;28;20061;-65
2023/11/25 09:20:09;;;;;;;23.98;4.40;;;;;;;5.82;89.97;101478.75;5055880;28;20191;-65
2023/11/25 09:22:41;;;;;;;19.45;4.28;;;;;;;5.99;89.93;101479.41;5047669;28;20067;-67
2023/11/25 09:25:12;;;;;;;20.17;4.38;;;;;;;5.98;90.38;101472.28;5046542;28;20052;-66
2023/11/25 09:27:44;;;;;;;20.17;4.40;;;;;;;6.80;90.44;101470.44;5045315;28;20045;-67
2023/11/25 09:30:14;;;;;;;18.25;4.28;;;;;;;6.67;85.91;101470.16;5044145;28;20056;-67
2023/11/25 09:32:41;;;;;;;17.63;4.40;;;;;;;6.54;86.01;101471.47;5065676;28;20041;-63
2023/11/25 09:35:12;;;;;;;18.98;4.72;;;;;;;7.63;87.73;101466.41;5042944;28;20045;-64
2023/11/25 09:37:43;;;;;;;26.05;4.20;;;;;;;8.15;83.63;101470.69;5036675;28;20058;-65
2023/11/25 09:40:14;;;;;;;19.40;4.25;;;;;;;7.22;83.13;101480.41;5048111;28;20057;-64
2023/11/25 09:42:43;;;;;;;25.05;5.00;;;;;;;7.00;83.54;101477.88;5043603;28;20055;-67
2023/11/25 09:45:11;;;;;;;22.30;5.07;;;;;;;7.84;80.96;101468.03;5040779;28;20049;-68
2023/11/25 09:47:40;;;;;;;15.10;3.80;;;;;;;6.97;81.78;101485.81;5042847;28;20057;-68
2023/11/25 09:50:09;;;;;;;21.00;3.83;;;;;;;7.36;84.85;101473.25;5047449;28;20064;-67
2023/11/25 09:52:43;;;;;;;16.83;4.03;;;;;;;6.61;82.96;101479.41;5031632;28;20061;-64
2023/11/25 09:55:11;;;;;;;16.38;3.88;;;;;;;6.40;86.10;101483.16;5046798;28;20611;-64
2023/11/25 09:57:39;;;;;;;16.10;3.50;;;;;;;6.75;86.17;101481.38;5051296;28;20052;-64
2023/11/25 10:00:24;;;;;;;16.38;4.35;;;;;;;7.09;86.65;101486.38;5044023;28;20045;-66
2023/11/25 10:02:57;;;;;;;22.10;4.45;;;;;;;7.14;83.35;101489.97;5042196;28;20052;-64
2023/11/25 10:05:25;;;;;;;18.70;3.85;;;;;;;7.83;82.33;101471.88;5048409;28;20054;-64
2023/11/25 10:07:52;;;;;;;16.63;4.00;;;;;;;8.20;78.18;101471.50;5045388;28;20512;-68
2023/11/25 10:10:28;;;;;;;14.50;3.55;;;;;;;7.91;79.04;101474.03;5042289;28;20072;-65
2023/11/25 10:13:22;;;;;;;21.38;4.03;;;;;;;8.47;79.31;101474.72;5028815;28;20049;-68
2023/11/25 10:15:51;;;;;;;17.52;3.75;;;;;;;8.08;79.85;101468.25;5052328;28;20419;-65
2023/11/25 10:18:19;;;;;;;16.65;4.35;;;;;;;7.71;78.12;101462.28;5037909;28;20060;-67
2023/11/25 10:20:48;;;;;;;18.23;4.35;;;;;;;8.21;78.52;101462.16;5029263;28;20054;-67
2023/11/25 10:23:21;;;;;;;21.15;3.47;;;;;;;6.99;80.42;101476.22;5043927;28;20551;-69
2023/11/25 10:25:51;;;;;;;14.75;3.50;;;;;;;6.64;83.39;101468.75;5036496;28;20053;-69
2023/11/25 10:28:25;;;;;;;17.48;4.55;;;;;;;7.55;85.25;101469.69;5045946;28;20060;-66
2023/11/25 10:30:56;;;;;;;16.08;3.50;;;;;;;7.23;80.71;101480.13;5042250;28;20052;-66
2023/11/25 10:33:24;;;;;;;21.73;3.58;;;;;;;7.22;81.83;101480.41;5047413;28;20053;-67
2023/11/25 10:35:54;;;;;;;19.08;3.30;;;;;;;8.39;81.37;101456.09;5047417;28;20040;-67
2023/11/25 10:38:22;;;;;;;15.35;3.28;;;;;;;7.90;77.41;101464.16;5040869;28;20064;-65
2023/11/25 10:40:49;;;;;;;17.65;3.50;;;;;;;8.62;76.19;101454.59;5039971;28;20060;-66
2023/11/25 10:43:20;;;;;;;14.68;3.63;;;;;;;8.66;74.80;101444.72;5043984;28;20484;-65
2023/11/25 10:46:00;;;;;;;18.88;3.17;;;;;;;8.66;74.84;101452.94;5041554;28;20045;-65
2023/11/25 10:48:28;;;;;;;15.30;2.97;;;;;;;8.23;76.22;101445.44;5029107;28;20049;-65
2023/11/25 10:50:58;;;;;;;19.15;3.42;;;;;;;8.74;75.87;101444.94;5041926;28;20043;-67
2023/11/25 10:53:29;;;;;;;19.90;3.53;;;;;;;7.45;75.97;101439.56;5043149;28;20048;-69
2023/11/25 10:55:58;;;;;;;17.65;3.80;;;;;;;7.26;78.33;101443.94;5044660;28;20046;-68
2023/11/25 10:58:28;;;;;;;16.65;3.30;;;;;;;7.18;79.68;101439.03;5031248;28;20064;-65
2023/11/25 11:01:25;;;;;;;15.97;3.03;;;;;;;7.78;78.71;101432.66;5052024;28;20057;-67
2023/11/25 11:04:46;;;;;;;14.27;3.25;;;;;;;7.72;77.04;101447.50;5033879;28;20048;-67
2023/11/25 11:07:20;;;;;;;20.65;3.28;;;;;;;7.14;79.29;101448.88;5049613;28;20057;-69
2023/11/25 11:10:18;;;;;;;18.05;3.40;;;;;;;7.47;80.27;101444.75;5047693;28;20049;-67
2023/11/25 11:13:02;;;;;;;15.57;3.35;;;;;;;7.12;79.66;101442.00;5045030;28;20049;-68
2023/11/25 11:15:34;;;;;;;19.95;3.35;;;;;;;6.96;80.96;101437.63;5044599;28;20052;-66
2023/11/25 11:18:35;;;;;;;15.68;3.40;;;;;;;8.14;80.13;101423.25;5038988;28;20041;-67
2023/11/25 11:21:15;;;;;;;17.10;3.67;;;;;;;7.32;77.84;101420.13;5044120;28;20045;-66
2023/11/25 11:23:58;;;;;;;14.40;3.25;;;;;;;7.46;78.60;101423.94;5037250;28;20057;-67
2023/11/25 11:27:09;;;;;;;15.23;3.60;;;;;;;7.65;77.88;101419.53;5034460;28;20393;-68
2023/11/25 11:29:49;;;;;;;17.45;3.42;;;;;;;7.54;76.77;101417.91;5033379;28;20053;-65
2023/11/25 11:32:29;;;;;;;14.82;3.10;;;;;;;7.49;75.94;101426.97;5041976;28;20062;-66
2023/11/25 11:35:04;;;;;;;17.02;3.25;;;;;;;7.41;75.93;101432.97;5010922;28;20045;-67
2023/11/25 11:38:12;;;;;;;13.20;2.60;;;;;;;7.19;78.01;101426.97;5049027;28;20062;-67
2023/11/25 11:41:24;;;;;;;14.77;2.65;;;;;;;7.26;77.42;101423.94;5064287;28;20052;-67